Time;durP1;ratioP1;P1;durP2;ratioP2;P2;SDS_P1;SDS_P2;PMS_P1;PMS_P2;Temp;Humidity;BMP_temperature;BMP_pressure;BME280_temperature;BME280_humidity;BME280_pressure;Samples;Min_cycle;Max_cycle;Signal;HPM_P1;HPM_P2
2023/07/08 00:01:54;;;;;;;0.10;0.10;;;14.70;99.90;;;;;;5094796;28;20536;-76
2023/07/08 00:04:20;;;;;;;0.10;0.10;;;14.70;99.90;;;;;;5092797;28;20910;-76
2023/07/08 00:06:46;;;;;;;0.10;0.10;;;14.80;99.90;;;;;;5088493;28;20531;-76
2023/07/08 00:09:12;;;;;;;0.10;0.10;;;14.80;99.90;;;;;;5069307;28;20254;-76
2023/07/08 00:11:37;;;;;;;0.10;0.10;;;14.80;99.90;;;;;;5092129;28;20431;-76
2023/07/08 00:14:03;;;;;;;0.10;0.10;;;14.80;99.90;;;;;;5093335;28;20723;-76
2023/07/08 00:16:28;;;;;;;0.10;0.10;;;14.80;99.90;;;;;;5090034;28;20272;-76
2023/07/08 00:18:54;;;;;;;0.10;0.10;;;14.70;99.90;;;;;;5073044;28;20203;-76
2023/07/08 00:21:19;;;;;;;0.10;0.10;;;14.60;99.90;;;;;;5093515;28;20918;-76
2023/07/08 00:23:50;;;;;;;0.10;0.10;;;14.60;99.90;;;;;;5080488;28;20241;-76
2023/07/08 00:26:26;;;;;;;0.10;0.10;;;14.60;99.90;;;;;;5098113;28;20196;-76
2023/07/08 00:28:52;;;;;;;0.10;0.10;;;14.60;99.90;;;;;;5096231;28;20454;-75
2023/07/08 00:31:23;;;;;;;0.10;0.10;;;14.50;99.90;;;;;;5099226;28;20465;-75
2023/07/08 00:33:55;;;;;;;0.10;0.10;;;14.60;99.90;;;;;;5098120;28;20571;-75
2023/07/08 00:36:22;;;;;;;0.10;0.10;;;14.50;99.90;;;;;;5089860;28;20451;-75
2023/07/08 00:38:48;;;;;;;0.10;0.10;;;14.70;99.90;;;;;;5088189;28;21163;-75
2023/07/08 00:41:22;;;;;;;0.10;0.10;;;14.60;99.90;;;;;;5072206;28;21041;-75
2023/07/08 00:43:50;;;;;;;0.10;0.10;;;14.50;99.90;;;;;;5088317;28;20700;-75
2023/07/08 00:46:45;;;;;;;0.10;0.10;;;14.40;99.90;;;;;;5085267;28;20447;-76
2023/07/08 00:49:31;;;;;;;0.10;0.10;;;14.40;99.90;;;;;;5058674;28;20530;-75
2023/07/08 00:52:19;;;;;;;0.10;0.10;;;14.30;99.90;;;;;;5105300;28;20929;-75
2023/07/08 00:54:46;;;;;;;0.10;0.10;;;14.40;99.90;;;;;;5106888;28;20483;-76
2023/07/08 00:57:12;;;;;;;0.10;0.10;;;14.20;99.90;;;;;;5069831;28;20444;-76
2023/07/08 00:59:44;;;;;;;0.10;0.10;;;14.20;99.90;;;;;;5093695;28;20446;-76
2023/07/08 01:02:12;;;;;;;0.10;0.10;;;14.20;99.90;;;;;;5087136;28;20181;-75
2023/07/08 01:04:47;;;;;;;0.10;0.10;;;14.30;99.90;;;;;;5066195;28;20450;-75
2023/07/08 01:07:13;;;;;;;0.10;0.10;;;14.20;99.90;;;;;;5078258;28;20946;-75
2023/07/08 01:09:44;;;;;;;0.10;0.10;;;14.20;99.90;;;;;;5095604;28;20510;-76
2023/07/08 01:12:18;;;;;;;0.10;0.10;;;14.30;99.90;;;;;;5093964;28;20181;-76
2023/07/08 01:14:45;;;;;;;0.10;0.10;;;14.20;99.90;;;;;;5079924;28;20475;-76
2023/07/08 01:17:14;;;;;;;0.10;0.10;;;14.10;99.90;;;;;;5070148;28;20443;-76
2023/07/08 01:19:42;;;;;;;0.10;0.10;;;14.10;99.90;;;;;;5089010;28;20443;-76
2023/07/08 01:22:08;;;;;;;0.10;0.10;;;14.10;99.90;;;;;;5089118;28;20443;-76
2023/07/08 01:24:37;;;;;;;0.10;0.10;;;14.00;99.90;;;;;;5061485;28;20462;-76
2023/07/08 01:27:06;;;;;;;0.10;0.10;;;14.10;99.90;;;;;;5087600;28;20438;-76
2023/07/08 01:29:31;;;;;;;0.10;0.10;;;14.00;99.90;;;;;;5090143;28;20487;-76
2023/07/08 01:31:58;;;;;;;0.10;0.10;;;14.00;99.90;;;;;;5083742;28;20493;-75
2023/07/08 01:34:24;;;;;;;0.10;0.10;;;13.80;99.90;;;;;;5088382;28;20216;-75
2023/07/08 01:36:53;;;;;;;0.10;0.10;;;13.80;99.90;;;;;;5070930;28;20822;-76
2023/07/08 01:39:21;;;;;;;0.10;0.10;;;13.80;99.90;;;;;;5079535;28;21151;-76
2023/07/08 01:41:47;;;;;;;0.10;0.10;;;13.80;99.90;;;;;;5070001;28;20454;-75
2023/07/08 01:44:31;;;;;;;0.10;0.10;;;13.90;99.90;;;;;;5072706;28;20447;-76
2023/07/08 01:47:07;;;;;;;0.10;0.10;;;13.90;99.90;;;;;;5067360;28;20534;-76
2023/07/08 01:49:35;;;;;;;0.10;0.10;;;13.80;99.90;;;;;;5084734;28;20488;-76
2023/07/08 01:52:01;;;;;;;0.10;0.10;;;13.80;99.90;;;;;;5088214;28;20534;-76
2023/07/08 01:54:27;;;;;;;0.10;0.10;;;13.70;99.90;;;;;;5086321;28;20510;-76
2023/07/08 01:56:57;;;;;;;0.10;0.10;;;13.70;99.90;;;;;;5085202;28;20973;-75
2023/07/08 01:59:22;;;;;;;0.10;0.10;;;13.70;99.90;;;;;;5069989;28;20193;-76
2023/07/08 02:01:49;;;;;;;0.20;0.20;;;13.60;99.90;;;;;;5086334;28;20938;-76
2023/07/08 02:04:15;;;;;;;0.10;0.10;;;13.60;99.90;;;;;;5098622;28;20188;-75
2023/07/08 02:06:42;;;;;;;0.10;0.10;;;13.60;99.90;;;;;;5084261;28;20442;-75
2023/07/08 02:09:07;;;;;;;0.10;0.10;;;13.60;99.90;;;;;;5091058;28;20559;-76
2023/07/08 02:11:33;;;;;;;0.10;0.10;;;13.50;99.90;;;;;;5090350;28;20422;-75
2023/07/08 02:14:00;;;;;;;0.10;0.10;;;13.40;99.90;;;;;;5086749;28;20231;-75
2023/07/08 02:16:26;;;;;;;0.10;0.10;;;13.50;99.90;;;;;;5086046;28;20181;-75
2023/07/08 02:18:51;;;;;;;0.10;0.10;;;13.50;99.90;;;;;;5088265;28;20812;-75
2023/07/08 02:21:17;;;;;;;0.10;0.10;;;13.50;99.90;;;;;;5068101;28;20648;-75
2023/07/08 02:23:44;;;;;;;0.20;0.20;;;13.50;99.90;;;;;;5088040;28;20181;-76
2023/07/08 02:26:10;;;;;;;0.10;0.10;;;13.50;99.90;;;;;;5070396;28;20887;-75
2023/07/08 02:28:35;;;;;;;0.10;0.10;;;13.50;99.90;;;;;;5086176;28;20471;-75
2023/07/08 02:31:04;;;;;;;0.10;0.10;;;13.30;99.90;;;;;;5095754;28;20193;-75
2023/07/08 02:33:32;;;;;;;0.10;0.10;;;13.30;99.90;;;;;;5094465;28;20227;-75
2023/07/08 02:35:59;;;;;;;0.10;0.10;;;13.40;99.90;;;;;;5088848;28;20430;-75
2023/07/08 02:38:25;;;;;;;0.10;0.10;;;13.50;99.90;;;;;;5084537;28;20467;-75
2023/07/08 02:40:50;;;;;;;0.10;0.10;;;13.50;99.90;;;;;;5088654;28;20939;-75
2023/07/08 02:43:16;;;;;;;0.10;0.10;;;13.40;99.90;;;;;;5098516;28;20188;-75
2023/07/08 02:45:41;;;;;;;0.10;0.10;;;13.30;99.90;;;;;;5091104;28;20211;-75
2023/07/08 02:48:07;;;;;;;0.10;0.10;;;13.30;99.90;;;;;;5088991;28;20192;-75
2023/07/08 02:50:32;;;;;;;0.10;0.10;;;13.30;99.90;;;;;;5088316;28;20211;-76
2023/07/08 02:52:58;;;;;;;0.10;0.10;;;13.30;99.90;;;;;;5070194;28;20665;-75
2023/07/08 02:55:23;;;;;;;0.10;0.10;;;13.30;99.90;;;;;;5089172;28;20185;-76
2023/07/08 02:57:49;;;;;;;0.10;0.10;;;13.40;99.90;;;;;;5071912;28;20544;-76
2023/07/08 03:00:15;;;;;;;0.10;0.10;;;13.40;99.90;;;;;;5086911;28;20637;-76
2023/07/08 03:02:40;;;;;;;0.10;0.10;;;13.40;99.90;;;;;;5107459;28;20184;-76
2023/07/08 03:05:06;;;;;;;0.10;0.10;;;13.30;99.90;;;;;;5099223;28;21015;-75
2023/07/08 03:07:32;;;;;;;0.10;0.10;;;13.20;99.90;;;;;;5069733;28;20197;-75
2023/07/08 03:09:57;;;;;;;0.10;0.10;;;13.30;99.90;;;;;;5086096;28;20177;-75
2023/07/08 03:12:23;;;;;;;0.10;0.10;;;13.30;99.90;;;;;;5087759;28;20318;-76
2023/07/08 03:14:48;;;;;;;0.10;0.10;;;13.30;99.90;;;;;;5086651;28;20217;-76
2023/07/08 03:17:14;;;;;;;0.10;0.10;;;13.30;99.90;;;;;;5103774;28;20191;-76
2023/07/08 03:19:40;;;;;;;0.10;0.10;;;13.30;99.90;;;;;;5095046;28;20184;-76
2023/07/08 03:22:07;;;;;;;0.10;0.10;;;13.30;99.90;;;;;;5071657;28;20217;-76
2023/07/08 03:24:33;;;;;;;0.10;0.10;;;13.20;99.90;;;;;;5098505;28;20808;-76
2023/07/08 03:27:00;;;;;;;0.10;0.10;;;13.30;99.90;;;;;;5089271;28;20420;-76
2023/07/08 03:29:26;;;;;;;0.10;0.10;;;13.30;99.90;;;;;;5086341;28;20192;-75
2023/07/08 03:31:51;;;;;;;0.10;0.10;;;13.30;99.90;;;;;;5087872;28;20431;-75
2023/07/08 03:34:17;;;;;;;0.10;0.10;;;13.10;99.90;;;;;;5069873;28;20213;-76
2023/07/08 03:36:48;;;;;;;0.10;0.10;;;13.20;99.90;;;;;;5069218;28;20557;-76
2023/07/08 03:39:19;;;;;;;0.10;0.10;;;13.20;99.90;;;;;;5093757;28;21040;-75
2023/07/08 03:41:45;;;;;;;0.20;0.20;;;13.20;99.90;;;;;;5087549;28;20439;-76
2023/07/08 03:44:11;;;;;;;0.10;0.10;;;13.10;99.90;;;;;;5072471;28;20447;-76
2023/07/08 03:46:37;;;;;;;0.10;0.10;;;13.20;99.90;;;;;;5070902;28;20447;-76
2023/07/08 03:49:02;;;;;;;0.10;0.10;;;13.20;99.90;;;;;;5072130;28;20478;-76
2023/07/08 03:51:31;;;;;;;0.10;0.10;;;13.20;99.90;;;;;;5098800;28;20589;-75
2023/07/08 03:53:57;;;;;;;0.10;0.10;;;13.30;99.90;;;;;;5086974;28;20223;-76
2023/07/08 03:56:23;;;;;;;0.10;0.10;;;13.20;99.90;;;;;;5090153;28;20435;-76
2023/07/08 03:58:50;;;;;;;0.10;0.10;;;13.30;99.90;;;;;;5091089;28;20649;-75
2023/07/08 04:01:18;;;;;;;0.10;0.10;;;13.30;99.90;;;;;;5082643;28;20434;-76
2023/07/08 04:03:44;;;;;;;0.10;0.10;;;13.30;99.90;;;;;;5096773;28;20474;-76
2023/07/08 04:06:10;;;;;;;0.10;0.10;;;13.40;99.90;;;;;;5089434;28;20802;-76
2023/07/08 04:08:36;;;;;;;0.10;0.10;;;13.40;99.90;;;;;;5088895;28;20436;-76
2023/07/08 04:11:01;;;;;;;0.10;0.10;;;13.40;99.90;;;;;;5086532;28;20261;-76
2023/07/08 04:13:27;;;;;;;0.10;0.10;;;13.40;99.90;;;;;;5071604;28;20208;-76
2023/07/08 04:16:04;;;;;;;0.10;0.10;;;13.50;99.90;;;;;;5089255;28;20193;-75
2023/07/08 04:18:30;;;;;;;0.10;0.10;;;13.50;99.90;;;;;;5073389;28;20177;-76
2023/07/08 04:20:56;;;;;;;0.10;0.10;;;13.60;99.90;;;;;;5070817;28;20469;-75
2023/07/08 04:23:22;;;;;;;0.10;0.10;;;13.60;99.90;;;;;;5092050;28;20260;-75
2023/07/08 04:25:49;;;;;;;0.10;0.10;;;13.60;99.90;;;;;;5086124;28;20295;-76
2023/07/08 04:28:16;;;;;;;0.10;0.10;;;13.70;99.90;;;;;;5089255;28;20442;-76
2023/07/08 04:30:42;;;;;;;0.10;0.10;;;13.70;99.90;;;;;;5091881;28;20447;-76
2023/07/08 04:33:12;;;;;;;0.10;0.10;;;13.70;99.90;;;;;;5071507;28;20522;-76
2023/07/08 04:35:38;;;;;;;0.10;0.10;;;13.80;99.90;;;;;;5089826;28;20507;-76
2023/07/08 04:38:15;;;;;;;0.10;0.10;;;13.90;99.90;;;;;;5072075;28;20455;-76
2023/07/08 04:40:41;;;;;;;0.10;0.10;;;13.90;99.90;;;;;;5072244;28;20467;-76
2023/07/08 04:43:07;;;;;;;0.10;0.10;;;14.00;99.90;;;;;;5089682;28;20443;-76
2023/07/08 04:45:33;;;;;;;0.10;0.10;;;14.00;99.90;;;;;;5097102;28;20264;-76
2023/07/08 04:47:58;;;;;;;0.10;0.10;;;14.10;99.90;;;;;;5076040;28;20181;-76
2023/07/08 04:50:24;;;;;;;0.10;0.10;;;14.10;99.90;;;;;;5089085;28;20501;-76
2023/07/08 04:52:50;;;;;;;0.10;0.10;;;14.30;99.90;;;;;;5071830;28;20190;-76
2023/07/08 04:55:16;;;;;;;0.10;0.10;;;14.40;99.90;;;;;;5087523;28;20228;-76
2023/07/08 04:57:41;;;;;;;0.10;0.10;;;14.50;99.90;;;;;;5085638;28;20268;-76
2023/07/08 05:00:11;;;;;;;0.10;0.10;;;14.50;99.90;;;;;;5079582;28;20504;-76
2023/07/08 05:02:37;;;;;;;0.10;0.10;;;14.60;99.90;;;;;;5077516;28;20263;-76
2023/07/08 05:05:03;;;;;;;0.10;0.10;;;14.70;99.90;;;;;;5064790;28;20952;-76
2023/07/08 05:07:28;;;;;;;0.10;0.10;;;14.80;99.90;;;;;;5072005;28;20271;-76
2023/07/08 05:09:56;;;;;;;0.10;0.10;;;14.80;99.90;;;;;;5087863;28;20199;-76
2023/07/08 05:12:21;;;;;;;0.10;0.10;;;14.90;99.90;;;;;;5085133;28;20920;-76
2023/07/08 05:14:47;;;;;;;0.10;0.10;;;15.00;99.90;;;;;;5068297;28;20552;-76
2023/07/08 05:17:12;;;;;;;0.10;0.10;;;15.20;99.90;;;;;;5087974;28;20233;-76
2023/07/08 05:19:38;;;;;;;0.10;0.10;;;15.30;99.90;;;;;;5086979;28;20242;-76
2023/07/08 05:22:04;;;;;;;0.10;0.10;;;15.40;99.90;;;;;;5088748;28;20659;-76
2023/07/08 05:24:29;;;;;;;0.10;0.10;;;15.70;99.90;;;;;;5087961;28;20725;-76
2023/07/08 05:26:55;;;;;;;0.10;0.10;;;15.80;99.90;;;;;;5080399;28;20603;-76
2023/07/08 05:29:20;;;;;;;0.10;0.10;;;16.00;99.90;;;;;;5090950;28;20549;-76
2023/07/08 05:31:46;;;;;;;0.10;0.10;;;16.10;99.90;;;;;;5082734;28;20189;-76
2023/07/08 05:34:11;;;;;;;0.10;0.10;;;16.30;99.90;;;;;;5082786;28;20217;-76
2023/07/08 05:36:37;;;;;;;0.10;0.10;;;16.50;99.90;;;;;;5085329;28;20206;-76
2023/07/08 05:39:02;;;;;;;0.10;0.10;;;16.70;99.90;;;;;;5066802;28;20233;-78
2023/07/08 05:41:28;;;;;;;0.10;0.10;;;16.90;99.90;;;;;;5105906;28;20188;-78
2023/07/08 05:43:53;;;;;;;0.10;0.10;;;17.00;99.90;;;;;;5074792;28;20244;-78
2023/07/08 05:46:19;;;;;;;0.10;0.10;;;17.20;99.90;;;;;;5093829;28;20219;-78
2023/07/08 05:48:44;;;;;;;0.10;0.10;;;17.40;99.90;;;;;;5087126;28;20196;-78
2023/07/08 05:51:10;;;;;;;0.10;0.10;;;17.50;99.90;;;;;;5074382;28;20610;-78
2023/07/08 05:53:35;;;;;;;0.10;0.10;;;17.70;99.90;;;;;;5084604;28;20213;-78
2023/07/08 05:56:02;;;;;;;0.10;0.10;;;17.80;99.90;;;;;;5092514;28;20528;-78
2023/07/08 05:58:27;;;;;;;0.10;0.10;;;18.00;99.90;;;;;;5089847;28;20189;-78
2023/07/08 06:00:57;;;;;;;0.10;0.10;;;18.10;99.90;;;;;;5098816;28;20510;-78
2023/07/08 06:03:23;;;;;;;0.10;0.10;;;18.10;99.90;;;;;;5098927;28;20275;-78
2023/07/08 06:05:49;;;;;;;0.10;0.10;;;18.20;99.90;;;;;;5089169;28;20596;-76
2023/07/08 06:08:14;;;;;;;0.10;0.10;;;18.40;99.90;;;;;;5089146;28;20185;-76
2023/07/08 06:10:44;;;;;;;0.10;0.10;;;18.50;99.90;;;;;;5089125;28;20448;-76
2023/07/08 06:13:11;;;;;;;0.10;0.10;;;18.50;99.90;;;;;;5095535;28;20181;-76
2023/07/08 06:15:36;;;;;;;0.10;0.10;;;18.60;99.90;;;;;;5090169;28;20451;-76
2023/07/08 06:18:03;;;;;;;0.10;0.10;;;18.70;99.90;;;;;;5087370;28;20832;-76
2023/07/08 06:20:28;;;;;;;0.10;0.10;;;18.80;99.90;;;;;;5092158;28;20181;-76
2023/07/08 06:22:54;;;;;;;0.10;0.10;;;18.90;99.90;;;;;;5082074;28;20451;-77
2023/07/08 06:25:20;;;;;;;0.10;0.10;;;19.00;99.90;;;;;;5089575;28;20734;-76
2023/07/08 06:27:46;;;;;;;0.10;0.10;;;19.30;99.90;;;;;;5090470;28;20189;-75
2023/07/08 06:30:11;;;;;;;0.10;0.10;;;19.30;99.90;;;;;;5068167;28;20531;-75
2023/07/08 06:32:37;;;;;;;0.10;0.10;;;19.40;99.90;;;;;;5088111;28;20181;-75
2023/07/08 06:35:03;;;;;;;0.10;0.10;;;19.40;99.90;;;;;;5091995;28;20221;-75
2023/07/08 06:37:28;;;;;;;0.10;0.00;;;19.60;99.90;;;;;;5089194;28;20197;-75
2023/07/08 06:39:54;;;;;;;0.10;0.10;;;19.60;99.90;;;;;;5090343;28;20848;-75
2023/07/08 06:42:20;;;;;;;0.10;0.00;;;19.70;99.90;;;;;;5098391;28;20339;-77
2023/07/08 06:44:50;;;;;;;0.10;0.10;;;19.70;99.90;;;;;;5087138;28;20921;-76
2023/07/08 06:47:17;;;;;;;0.10;0.00;;;19.90;99.90;;;;;;5085715;28;20192;-76
2023/07/08 06:49:43;;;;;;;0.10;0.10;;;19.90;99.90;;;;;;5085027;28;20542;-77
2023/07/08 06:52:08;;;;;;;0.10;0.00;;;20.00;99.90;;;;;;5086002;28;20530;-75
2023/07/08 06:54:34;;;;;;;0.10;0.00;;;20.10;99.90;;;;;;5096138;28;20332;-76
2023/07/08 06:57:00;;;;;;;0.10;0.10;;;20.10;99.90;;;;;;5090310;28;20195;-77
2023/07/08 06:59:25;;;;;;;0.10;0.10;;;20.20;99.90;;;;;;5087296;28;20735;-77
2023/07/08 07:01:50;;;;;;;0.10;0.00;;;20.30;99.90;;;;;;5082374;28;20664;-75
2023/07/08 07:04:16;;;;;;;0.10;0.00;;;20.40;99.90;;;;;;5093248;28;20190;-76
2023/07/08 07:06:41;;;;;;;0.10;0.10;;;20.60;99.90;;;;;;5079386;28;20584;-78
2023/07/08 07:09:07;;;;;;;0.10;0.00;;;20.50;99.90;;;;;;5080230;28;20202;-77
2023/07/08 07:11:32;;;;;;;0.10;0.00;;;20.60;99.90;;;;;;5070773;28;20189;-78
2023/07/08 07:13:58;;;;;;;0.10;0.00;;;20.60;99.90;;;;;;5091378;28;20240;-76
2023/07/08 07:16:23;;;;;;;0.10;0.00;;;20.80;99.90;;;;;;5098014;28;20231;-76
2023/07/08 07:18:51;;;;;;;0.10;0.00;;;20.80;99.90;;;;;;5093050;28;20227;-76
2023/07/08 07:21:17;;;;;;;0.10;0.10;;;20.80;99.90;;;;;;5083103;28;20189;-76
2023/07/08 07:23:42;;;;;;;0.10;0.00;;;20.90;99.90;;;;;;5084831;28;20796;-76
2023/07/08 07:26:08;;;;;;;0.10;0.00;;;21.00;99.90;;;;;;5082417;28;20197;-76
2023/07/08 07:28:34;;;;;;;0.10;0.00;;;21.10;99.90;;;;;;5082498;28;20181;-75
2023/07/08 07:30:59;;;;;;;0.10;0.00;;;21.30;99.90;;;;;;5081362;28;20697;-76
2023/07/08 07:33:26;;;;;;;0.10;0.00;;;21.30;99.90;;;;;;5092494;28;20213;-76
2023/07/08 07:35:52;;;;;;;0.10;0.00;;;21.50;99.90;;;;;;5088412;28;20645;-76
2023/07/08 07:38:17;;;;;;;0.10;0.00;;;21.60;99.90;;;;;;5082421;28;20464;-76
2023/07/08 07:40:44;;;;;;;0.10;0.00;;;21.60;99.90;;;;;;5071165;28;20193;-76
2023/07/08 07:43:10;;;;;;;0.10;0.00;;;21.80;99.90;;;;;;5087045;28;20284;-76
2023/07/08 07:45:36;;;;;;;0.10;0.10;;;21.90;99.90;;;;;;5096940;28;20522;-76
2023/07/08 07:48:01;;;;;;;0.10;0.00;;;21.90;99.90;;;;;;5086345;28;20200;-75
2023/07/08 07:50:27;;;;;;;0.10;0.00;;;21.90;99.90;;;;;;5087660;28;20223;-75
2023/07/08 07:52:53;;;;;;;0.10;0.00;;;22.10;99.90;;;;;;5089428;28;20240;-75
2023/07/08 07:55:19;;;;;;;0.10;0.10;;;22.20;99.90;;;;;;5094953;28;20477;-76
2023/07/08 07:57:46;;;;;;;0.10;0.00;;;22.30;99.90;;;;;;5097608;28;20184;-75
2023/07/08 08:00:14;;;;;;;0.10;0.00;;;22.30;99.90;;;;;;5078035;28;20702;-75
2023/07/08 08:02:40;;;;;;;0.10;0.00;;;22.40;99.90;;;;;;5085248;28;20447;-79
2023/07/08 08:05:05;;;;;;;0.10;0.00;;;22.40;99.90;;;;;;5088757;28;20441;-78
2023/07/08 08:07:31;;;;;;;0.10;0.00;;;22.80;99.90;;;;;;5073633;28;20839;-76
2023/07/08 08:09:56;;;;;;;0.10;0.00;;;22.90;99.90;;;;;;5092815;28;20540;-75
2023/07/08 08:12:24;;;;;;;0.10;0.00;;;22.90;99.90;;;;;;5089601;28;20189;-75
2023/07/08 08:14:50;;;;;;;0.10;0.00;;;23.10;99.90;;;;;;5089375;28;20707;-75
2023/07/08 08:17:16;;;;;;;0.10;0.00;;;23.10;99.90;;;;;;5086036;28;20525;-75
2023/07/08 08:19:41;;;;;;;0.10;0.00;;;23.20;99.90;;;;;;5090476;28;20541;-75
2023/07/08 08:22:07;;;;;;;0.10;0.00;;;23.20;99.90;;;;;;5087164;28;20185;-75
2023/07/08 08:24:33;;;;;;;0.10;0.00;;;23.30;99.90;;;;;;5083539;28;20189;-75
2023/07/08 08:26:59;;;;;;;0.10;0.00;;;23.30;99.90;;;;;;5086313;28;20181;-75
2023/07/08 08:29:25;;;;;;;0.10;0.00;;;23.50;99.90;;;;;;5085587;28;20868;-76
2023/07/08 08:31:51;;;;;;;0.10;0.00;;;23.60;99.90;;;;;;5090278;28;20193;-76
2023/07/08 08:34:17;;;;;;;0.10;0.00;;;23.70;99.90;;;;;;5094298;28;20536;-75
2023/07/08 08:36:42;;;;;;;0.10;0.00;;;23.80;99.90;;;;;;5099038;28;20225;-75
2023/07/08 08:39:08;;;;;;;0.10;0.00;;;23.90;99.90;;;;;;5086977;28;20224;-76
2023/07/08 08:41:37;;;;;;;0.10;0.00;;;24.00;99.90;;;;;;5088160;28;20721;-76
2023/07/08 08:44:04;;;;;;;0.10;0.00;;;24.10;99.90;;;;;;5095305;28;20950;-76
2023/07/08 08:46:41;;;;;;;0.10;0.00;;;24.00;99.90;;;;;;5090574;28;20844;-75
2023/07/08 08:49:22;;;;;;;0.10;0.00;;;24.20;99.90;;;;;;5084101;28;21025;-76
2023/07/08 08:51:49;;;;;;;0.10;0.00;;;24.40;99.90;;;;;;5063401;28;20469;-76
2023/07/08 08:54:14;;;;;;;0.10;0.00;;;24.60;99.90;;;;;;5086802;28;20479;-76
2023/07/08 08:56:48;;;;;;;0.10;0.00;;;24.50;99.90;;;;;;5090076;28;20452;-75
2023/07/08 08:59:33;;;;;;;0.10;0.00;;;24.70;99.90;;;;;;5085892;28;20181;-76
2023/07/08 09:02:00;;;;;;;0.10;0.00;;;24.70;99.90;;;;;;5093227;28;20475;-76
2023/07/08 09:04:35;;;;;;;0.10;0.00;;;24.90;99.90;;;;;;5094855;28;20541;-76
2023/07/08 09:07:08;;;;;;;0.10;0.00;;;25.10;99.90;;;;;;5093466;28;20441;-76
2023/07/08 09:09:44;;;;;;;0.10;0.00;;;25.10;99.90;;;;;;5090561;28;20528;-76
2023/07/08 09:12:17;;;;;;;0.10;0.00;;;25.20;99.90;;;;;;5091842;28;20435;-76
2023/07/08 09:14:42;;;;;;;0.10;0.00;;;25.30;99.90;;;;;;5085720;28;20487;-76
2023/07/08 09:17:20;;;;;;;0.10;0.00;;;25.70;99.90;;;;;;5089821;28;20454;-75
2023/07/08 09:20:13;;;;;;;0.10;0.00;;;25.90;99.90;;;;;;5098422;28;20664;-75
2023/07/08 09:22:42;;;;;;;0.10;0.00;;;25.50;99.90;;;;;;5096433;28;20438;-75
2023/07/08 09:25:28;;;;;;;0.10;0.00;;;25.90;99.90;;;;;;5080447;28;20447;-76
2023/07/08 09:27:53;;;;;;;0.10;0.00;;;25.70;99.90;;;;;;5069224;28;20497;-76
2023/07/08 09:30:21;;;;;;;0.10;0.00;;;26.00;99.90;;;;;;5083323;28;20938;-75
2023/07/08 09:32:48;;;;;;;0.10;0.00;;;25.90;99.90;;;;;;5097894;28;20652;-75
2023/07/08 09:35:23;;;;;;;0.10;0.00;;;26.00;99.90;;;;;;5090575;28;20841;-75
2023/07/08 09:37:49;;;;;;;0.10;0.00;;;25.80;99.90;;;;;;5083980;28;20444;-76
2023/07/08 09:40:28;;;;;;;0.10;0.00;;;26.00;99.90;;;;;;5068961;28;20992;-76
2023/07/08 09:43:02;;;;;;;0.10;0.00;;;26.20;99.90;;;;;;5085786;28;20818;-76
2023/07/08 09:45:39;;;;;;;0.10;0.00;;;26.60;99.90;;;;;;5086138;28;20449;-76
2023/07/08 09:48:16;;;;;;;0.10;0.00;;;26.70;99.90;;;;;;5086846;28;20490;-76
2023/07/08 09:50:43;;;;;;;0.10;0.00;;;26.50;99.90;;;;;;5090621;28;20920;-76
2023/07/08 09:53:13;;;;;;;0.10;0.00;;;26.80;99.90;;;;;;5087937;28;20439;-76
2023/07/08 09:55:40;;;;;;;0.10;0.00;;;26.90;99.90;;;;;;5068699;28;20464;-76
2023/07/08 09:58:12;;;;;;;0.10;0.00;;;27.00;99.90;;;;;;5064279;28;20862;-77
2023/07/08 10:00:40;;;;;;;0.10;0.00;;;27.00;99.90;;;;;;5084995;28;20474;-77
2023/07/08 10:03:15;;;;;;;0.10;0.00;;;27.20;99.90;;;;;;5084965;28;20472;-76
2023/07/08 10:05:42;;;;;;;0.10;0.00;;;27.30;99.90;;;;;;5090738;28;20521;-76
2023/07/08 10:08:19;;;;;;;0.10;0.00;;;27.00;99.90;;;;;;5095213;28;20454;-76
2023/07/08 10:10:49;;;;;;;0.10;0.00;;;27.30;99.90;;;;;;5091334;28;20446;-77
2023/07/08 10:13:26;;;;;;;0.10;0.00;;;27.40;99.90;;;;;;5086535;28;21321;-77
2023/07/08 10:16:15;;;;;;;0.10;0.00;;;27.50;99.90;;;;;;5093914;28;20557;-77
2023/07/08 10:18:41;;;;;;;0.10;0.00;;;27.60;99.90;;;;;;5091432;28;20435;-76
2023/07/08 10:21:35;;;;;;;0.10;0.00;;;27.90;99.90;;;;;;5087883;28;20742;-78
2023/07/08 10:24:24;;;;;;;0.10;0.00;;;28.00;99.90;;;;;;5081500;28;20443;-78
2023/07/08 10:27:18;;;;;;;0.10;0.00;;;28.50;99.90;;;;;;5086801;28;20511;-77
2023/07/08 10:29:52;;;;;;;0.10;0.00;;;28.40;99.90;;;;;;5086463;28;20930;-78
2023/07/08 10:32:29;;;;;;;0.10;0.00;;;28.30;99.90;;;;;;5091566;28;20942;-77
2023/07/08 10:35:11;;;;;;;0.10;0.00;;;28.40;99.90;;;;;;5086714;28;20482;-77
2023/07/08 10:38:01;;;;;;;0.10;0.00;;;28.60;99.90;;;;;;5083729;28;20435;-78
2023/07/08 10:40:33;;;;;;;0.10;0.00;;;28.70;99.90;;;;;;5087671;28;20447;-78
2023/07/08 10:43:33;;;;;;;0.10;0.00;;;28.80;99.90;;;;;;5084904;28;20431;-76
2023/07/08 10:46:17;;;;;;;0.10;0.00;;;28.90;99.90;;;;;;5042272;28;20525;-78
2023/07/08 10:49:06;;;;;;;0.10;0.00;;;29.30;99.90;;;;;;5087659;28;20444;-79
2023/07/08 10:52:05;;;;;;;0.10;0.00;;;29.20;99.90;;;;;;5055227;28;20436;-76
2023/07/08 10:55:13;;;;;;;0.10;0.00;;;29.40;99.90;;;;;;5075922;28;20477;-79
2023/07/08 10:58:17;;;;;;;0.10;0.00;;;29.20;99.90;;;;;;5079376;28;20547;-77
2023/07/08 11:01:00;;;;;;;0.10;0.00;;;29.50;99.90;;;;;;5068216;28;20442;-75
2023/07/08 11:03:48;;;;;;;0.10;0.00;;;29.90;99.90;;;;;;5086815;28;20483;-75
2023/07/08 11:06:19;;;;;;;0.10;0.00;;;29.80;99.90;;;;;;5088892;28;20926;-75
2023/07/08 11:08:49;;;;;;;0.10;0.00;;;29.90;99.90;;;;;;5086019;28;20431;-75
2023/07/08 11:11:27;;;;;;;0.10;0.00;;;30.20;99.90;;;;;;5072820;28;20438;-74
2023/07/08 11:14:14;;;;;;;0.10;0.00;;;29.80;99.90;;;;;;5090713;28;20473;-73
2023/07/08 11:16:47;;;;;;;0.10;0.00;;;29.50;99.90;;;;;;5072689;28;20815;-74
2023/07/08 11:19:25;;;;;;;0.10;0.00;;;29.90;99.90;;;;;;5087992;28;20499;-74
2023/07/08 11:21:54;;;;;;;0.10;0.00;;;30.60;99.90;;;;;;5073088;28;20442;-75
2023/07/08 11:24:28;;;;;;;0.10;0.00;;;31.00;99.90;;;;;;5090786;28;20489;-75
2023/07/08 11:26:58;;;;;;;0.10;0.00;;;30.20;99.90;;;;;;5089294;28;20439;-76
2023/07/08 11:29:39;;;;;;;0.10;0.00;;;30.80;99.90;;;;;;5071461;28;20455;-75
2023/07/08 11:32:09;;;;;;;0.10;0.00;;;31.30;99.90;;;;;;5104132;28;20450;-75
2023/07/08 11:34:37;;;;;;;0.10;0.00;;;31.20;99.90;;;;;;5084476;28;20475;-75
2023/07/08 11:37:04;;;;;;;0.10;0.00;;;31.10;99.90;;;;;;5090088;28;20437;-75
2023/07/08 11:39:41;;;;;;;0.10;0.00;;;31.40;99.90;;;;;;5089148;28;20467;-74
2023/07/08 11:42:18;;;;;;;0.10;0.00;;;31.20;99.90;;;;;;5089611;28;20431;-75
2023/07/08 11:44:49;;;;;;;0.10;0.00;;;31.30;99.90;;;;;;5081039;28;20529;-75
2023/07/08 11:47:20;;;;;;;0.10;0.00;;;31.60;99.90;;;;;;5095200;28;20441;-75
2023/07/08 11:49:47;;;;;;;0.10;0.00;;;31.80;97.80;;;;;;5092188;28;20532;-76
2023/07/08 11:52:18;;;;;;;0.10;0.00;;;31.50;98.80;;;;;;5095314;28;20439;-75
2023/07/08 11:54:46;;;;;;;0.10;0.00;;;32.00;99.50;;;;;;5072724;28;20524;-73
2023/07/08 11:57:24;;;;;;;0.10;0.00;;;32.10;98.80;;;;;;5091461;28;20949;-73
2023/07/08 12:00:13;;;;;;;0.10;0.00;;;32.30;97.40;;;;;;5079681;28;20442;-73
2023/07/08 12:02:57;;;;;;;0.10;0.00;;;32.10;96.60;;;;;;5090759;28;20471;-72
2023/07/08 12:05:35;;;;;;;0.10;0.00;;;32.20;96.30;;;;;;5066616;28;20478;-72
2023/07/08 12:08:03;;;;;;;0.10;0.00;;;32.20;98.10;;;;;;5076272;28;20443;-73
2023/07/08 12:10:37;;;;;;;0.10;0.00;;;32.10;97.00;;;;;;5086965;28;20435;-73
2023/07/08 12:13:03;;;;;;;0.10;0.00;;;32.60;96.50;;;;;;5073654;28;20435;-74
2023/07/08 12:15:31;;;;;;;0.10;0.00;;;32.10;95.10;;;;;;5083784;28;20483;-73
2023/07/08 12:18:06;;;;;;;0.10;0.00;;;32.40;97.00;;;;;;5078896;28;20442;-74
2023/07/08 12:20:36;;;;;;;0.10;0.00;;;32.50;95.30;;;;;;5071162;28;20454;-71
2023/07/08 12:23:01;;;;;;;0.10;0.00;;;32.20;92.80;;;;;;5085612;28;20430;-72
2023/07/08 12:25:32;;;;;;;0.10;0.00;;;32.30;95.00;;;;;;5080954;28;20447;-73
2023/07/08 12:27:57;;;;;;;0.10;0.00;;;32.70;96.50;;;;;;5089905;28;20446;-73
2023/07/08 12:30:25;;;;;;;0.10;0.00;;;32.20;91.80;;;;;;5092823;28;20446;-73
2023/07/08 12:32:51;;;;;;;0.10;0.00;;;31.80;92.00;;;;;;5096601;28;20193;-73
2023/07/08 12:35:34;;;;;;;0.10;0.00;;;32.80;93.90;;;;;;5090715;28;20493;-73
2023/07/08 12:38:14;;;;;;;0.10;0.00;;;32.20;93.00;;;;;;5083763;28;20437;-73
2023/07/08 12:40:41;;;;;;;0.10;0.00;;;32.60;95.20;;;;;;5088486;28;20454;-73
2023/07/08 12:43:10;;;;;;;0.10;0.00;;;32.40;92.30;;;;;;5090725;28;20427;-73
2023/07/08 12:45:36;;;;;;;0.10;0.00;;;32.60;94.20;;;;;;5065585;28;20886;-74
2023/07/08 12:48:02;;;;;;;0.10;0.00;;;32.40;93.50;;;;;;5078288;28;20443;-72
2023/07/08 12:50:28;;;;;;;0.10;0.00;;;32.80;96.10;;;;;;5063023;28;20475;-74
2023/07/08 12:52:54;;;;;;;0.10;0.00;;;32.70;96.50;;;;;;5085402;28;20528;-73
2023/07/08 12:55:20;;;;;;;0.10;0.00;;;32.90;95.90;;;;;;5092138;28;20235;-74
2023/07/08 12:57:48;;;;;;;0.10;0.00;;;32.50;95.80;;;;;;5089264;28;20224;-75
2023/07/08 13:00:30;;;;;;;0.10;0.00;;;32.20;95.40;;;;;;5087279;28;20348;-74